sensor_id;sensor_type;location;lat;lon;timestamp;pressure;altitude;pressure_sealevel;temperature;humidity
24306;BME280;12423;48.768;8.850;2023-08-30T00:00:31;96403.38;;;13.35;100.00
24306;BME280;12423;48.768;8.850;2023-08-30T00:02:59;96403.00;;;13.30;100.00
24306;BME280;12423;48.768;8.850;2023-08-30T00:05:27;96398.63;;;13.29;100.00
24306;BME280;12423;48.768;8.850;2023-08-30T00:07:55;96398.63;;;13.29;100.00
24306;BME280;12423;48.768;8.850;2023-08-30T00:10:23;96400.66;;;13.27;100.00
24306;BME280;12423;48.768;8.850;2023-08-30T00:12:50;96399.28;;;13.23;100.00
24306;BME280;12423;48.768;8.850;2023-08-30T00:15:18;96386.72;;;13.15;100.00
24306;BME280;12423;48.768;8.850;2023-08-30T00:17:47;96390.72;;;13.19;100.00
24306;BME280;12423;48.768;8.850;2023-08-30T00:20:18;96395.94;;;13.21;100.00
24306;BME280;12423;48.768;8.850;2023-08-30T00:22:47;96399.59;;;13.20;100.00
24306;BME280;12423;48.768;8.850;2023-08-30T00:25:15;96396.75;;;13.21;100.00
24306;BME280;12423;48.768;8.850;2023-08-30T00:27:43;96395.94;;;13.21;100.00
24306;BME280;12423;48.768;8.850;2023-08-30T00:30:12;96393.06;;;13.14;100.00
24306;BME280;12423;48.768;8.850;2023-08-30T00:32:39;96388.34;;;13.08;100.00
24306;BME280;12423;48.768;8.850;2023-08-30T00:35:09;96383.31;;;13.05;100.00
24306;BME280;12423;48.768;8.850;2023-08-30T00:37:37;96384.50;;;13.02;100.00
24306;BME280;12423;48.768;8.850;2023-08-30T00:40:05;96377.44;;;13.01;100.00
24306;BME280;12423;48.768;8.850;2023-08-30T00:42:33;96382.31;;;13.06;100.00
24306;BME280;12423;48.768;8.850;2023-08-30T00:45:01;96379.47;;;13.07;100.00
24306;BME280;12423;48.768;8.850;2023-08-30T00:47:29;96374.44;;;13.04;100.00
24306;BME280;12423;48.768;8.850;2023-08-30T00:49:57;96379.47;;;13.07;100.00
24306;BME280;12423;48.768;8.850;2023-08-30T00:52:26;96379.47;;;13.07;100.00
24306;BME280;12423;48.768;8.850;2023-08-30T00:54:54;96376.13;;;13.05;100.00
24306;BME280;12423;48.768;8.850;2023-08-30T00:57:22;96374.59;;;12.95;100.00
24306;BME280;12423;48.768;8.850;2023-08-30T00:59:51;96374.59;;;12.95;100.00
24306;BME280;12423;48.768;8.850;2023-08-30T01:02:21;96364.19;;;12.91;100.00
24306;BME280;12423;48.768;8.850;2023-08-30T01:04:49;96364.03;;;12.93;100.00
24306;BME280;12423;48.768;8.850;2023-08-30T01:07:17;96364.72;;;12.95;100.00
24306;BME280;12423;48.768;8.850;2023-08-30T01:09:47;96370.41;;;12.92;100.00
24306;BME280;12423;48.768;8.850;2023-08-30T01:12:20;96363.00;;;12.86;100.00
24306;BME280;12423;48.768;8.850;2023-08-30T01:14:54;96369.69;;;12.82;100.00
24306;BME280;12423;48.768;8.850;2023-08-30T01:17:25;96360.47;;;12.76;100.00
24306;BME280;12423;48.768;8.850;2023-08-30T01:19:59;96365.34;;;12.81;100.00
24306;BME280;12423;48.768;8.850;2023-08-30T01:22:37;96359.28;;;12.70;100.00
24306;BME280;12423;48.768;8.850;2023-08-30T01:25:17;96370.47;;;12.66;100.00
24306;BME280;12423;48.768;8.850;2023-08-30T01:27:50;96363.44;;;12.65;100.00
24306;BME280;12423;48.768;8.850;2023-08-30T01:30:20;96357.38;;;12.54;100.00
24306;BME280;12423;48.768;8.850;2023-08-30T01:32:49;96363.19;;;12.50;100.00
24306;BME280;12423;48.768;8.850;2023-08-30T01:35:18;96364.84;;;12.43;100.00
24306;BME280;12423;48.768;8.850;2023-08-30T01:37:47;96354.47;;;12.40;100.00
24306;BME280;12423;48.768;8.850;2023-08-30T01:40:16;96354.94;;;12.35;100.00
24306;BME280;12423;48.768;8.850;2023-08-30T01:42:45;96356.47;;;12.38;100.00
24306;BME280;12423;48.768;8.850;2023-08-30T01:45:16;96360.44;;;12.33;100.00
24306;BME280;12423;48.768;8.850;2023-08-30T01:47:46;96355.72;;;12.27;100.00
24306;BME280;12423;48.768;8.850;2023-08-30T01:50:16;96352.38;;;12.25;100.00
24306;BME280;12423;48.768;8.850;2023-08-30T01:52:44;96360.03;;;12.20;100.00
24306;BME280;12423;48.768;8.850;2023-08-30T01:55:13;96353.69;;;12.21;100.00
24306;BME280;12423;48.768;8.850;2023-08-30T01:57:41;96368.06;;;12.20;100.00
24306;BME280;12423;48.768;8.850;2023-08-30T02:00:09;96365.41;;;12.20;100.00
24306;BME280;12423;48.768;8.850;2023-08-30T02:02:45;96364.72;;;12.18;100.00
24306;BME280;12423;48.768;8.850;2023-08-30T02:05:13;96367.66;;;12.07;100.00
24306;BME280;12423;48.768;8.850;2023-08-30T02:07:46;96367.97;;;12.04;100.00
24306;BME280;12423;48.768;8.850;2023-08-30T02:10:21;96366.22;;;11.94;100.00
24306;BME280;12423;48.768;8.850;2023-08-30T02:12:53;96357.53;;;11.92;100.00
24306;BME280;12423;48.768;8.850;2023-08-30T02:15:23;96359.13;;;11.85;100.00
24306;BME280;12423;48.768;8.850;2023-08-30T02:17:53;96361.50;;;11.88;100.00
24306;BME280;12423;48.768;8.850;2023-08-30T02:20:22;96351.84;;;11.95;100.00
24306;BME280;12423;48.768;8.850;2023-08-30T02:22:50;96358.28;;;11.85;100.00
24306;BME280;12423;48.768;8.850;2023-08-30T02:25:18;96354.44;;;11.87;100.00
24306;BME280;12423;48.768;8.850;2023-08-30T02:27:50;96365.00;;;11.89;100.00
24306;BME280;12423;48.768;8.850;2023-08-30T02:30:18;96358.38;;;11.93;100.00
24306;BME280;12423;48.768;8.850;2023-08-30T02:32:46;96356.75;;;11.82;100.00
24306;BME280;12423;48.768;8.850;2023-08-30T02:35:17;96357.59;;;11.83;100.00
24306;BME280;12423;48.768;8.850;2023-08-30T02:37:44;96359.13;;;11.85;100.00
24306;BME280;12423;48.768;8.850;2023-08-30T02:40:14;96358.44;;;11.83;100.00
24306;BME280;12423;48.768;8.850;2023-08-30T02:42:41;96361.22;;;11.91;100.00
24306;BME280;12423;48.768;8.850;2023-08-30T02:45:09;96365.69;;;11.91;100.00
24306;BME280;12423;48.768;8.850;2023-08-30T02:47:37;96357.44;;;11.84;100.00
24306;BME280;12423;48.768;8.850;2023-08-30T02:50:05;96367.16;;;11.85;100.00
24306;BME280;12423;48.768;8.850;2023-08-30T02:52:34;96362.47;;;11.87;100.00
24306;BME280;12423;48.768;8.850;2023-08-30T02:55:02;96361.81;;;11.85;100.00
24306;BME280;12423;48.768;8.850;2023-08-30T02:57:30;96362.13;;;11.82;100.00
24306;BME280;12423;48.768;8.850;2023-08-30T02:59:58;96361.81;;;11.85;100.00
24306;BME280;12423;48.768;8.850;2023-08-30T03:02:26;96354.25;;;11.80;100.00
24306;BME280;12423;48.768;8.850;2023-08-30T03:04:55;96361.50;;;11.88;100.00
24306;BME280;12423;48.768;8.850;2023-08-30T03:07:23;96361.34;;;11.90;100.00
24306;BME280;12423;48.768;8.850;2023-08-30T03:09:54;96361.50;;;11.88;100.00
24306;BME280;12423;48.768;8.850;2023-08-30T03:12:22;96359.81;;;11.87;100.00
24306;BME280;12423;48.768;8.850;2023-08-30T03:14:51;96359.06;;;11.95;100.00
24306;BME280;12423;48.768;8.850;2023-08-30T03:17:18;96364.09;;;11.98;100.00
24306;BME280;12423;48.768;8.850;2023-08-30T03:19:46;96363.41;;;11.96;100.00
24306;BME280;12423;48.768;8.850;2023-08-30T03:22:14;96363.25;;;11.97;100.00
24306;BME280;12423;48.768;8.850;2023-08-30T03:24:41;96360.56;;;11.97;100.00
24306;BME280;12423;48.768;8.850;2023-08-30T03:27:10;96350.72;;;11.98;100.00
24306;BME280;12423;48.768;8.850;2023-08-30T03:29:38;96360.94;;;12.03;100.00
24306;BME280;12423;48.768;8.850;2023-08-30T03:32:06;96356.28;;;12.05;100.00
24306;BME280;12423;48.768;8.850;2023-08-30T03:34:34;96359.63;;;12.07;100.00
24306;BME280;12423;48.768;8.850;2023-08-30T03:37:02;96345.25;;;12.08;100.00
24306;BME280;12423;48.768;8.850;2023-08-30T03:39:29;96342.38;;;12.01;100.00
24306;BME280;12423;48.768;8.850;2023-08-30T03:41:58;96350.56;;;12.00;100.00
24306;BME280;12423;48.768;8.850;2023-08-30T03:44:27;96350.94;;;12.05;100.00
24306;BME280;12423;48.768;8.850;2023-08-30T03:46:55;96346.56;;;12.04;100.00
24306;BME280;12423;48.768;8.850;2023-08-30T03:49:23;96347.88;;;12.00;100.00
24306;BME280;12423;48.768;8.850;2023-08-30T03:51:51;96340.84;;;11.98;100.00
24306;BME280;12423;48.768;8.850;2023-08-30T03:54:19;96351.25;;;12.02;100.00
24306;BME280;12423;48.768;8.850;2023-08-30T03:56:46;96352.06;;;12.02;100.00
24306;BME280;12423;48.768;8.850;2023-08-30T03:59:14;96355.41;;;12.04;100.00
24306;BME280;12423;48.768;8.850;2023-08-30T04:01:44;96359.13;;;12.03;100.00
24306;BME280;12423;48.768;8.850;2023-08-30T04:04:12;96361.94;;;12.02;100.00
24306;BME280;12423;48.768;8.850;2023-08-30T04:06:40;96358.25;;;12.03;100.00
24306;BME280;12423;48.768;8.850;2023-08-30T04:09:07;96363.94;;;12.00;100.00
24306;BME280;12423;48.768;8.850;2023-08-30T04:11:36;96357.72;;;11.99;100.00
24306;BME280;12423;48.768;8.850;2023-08-30T04:14:04;96358.91;;;11.96;100.00
24306;BME280;12423;48.768;8.850;2023-08-30T04:16:32;96361.63;;;12.05;100.00
24306;BME280;12423;48.768;8.850;2023-08-30T04:19:01;96354.78;;;12.10;100.00
24306;BME280;12423;48.768;8.850;2023-08-30T04:21:28;96350.28;;;12.11;100.00
24306;BME280;12423;48.768;8.850;2023-08-30T04:23:56;96351.09;;;12.03;100.00
24306;BME280;12423;48.768;8.850;2023-08-30T04:26:24;96348.09;;;12.06;100.00
24306;BME280;12423;48.768;8.850;2023-08-30T04:28:52;96352.78;;;12.12;100.00
24306;BME280;12423;48.768;8.850;2023-08-30T04:31:19;96351.97;;;12.12;100.00
24306;BME280;12423;48.768;8.850;2023-08-30T04:33:47;96356.63;;;12.10;100.00
24306;BME280;12423;48.768;8.850;2023-08-30T04:36:16;96357.47;;;12.10;100.00
24306;BME280;12423;48.768;8.850;2023-08-30T04:38:44;96349.97;;;12.14;100.00
24306;BME280;12423;48.768;8.850;2023-08-30T04:41:28;96349.13;;;12.13;100.00
24306;BME280;12423;48.768;8.850;2023-08-30T04:43:56;96350.22;;;12.03;100.00
24306;BME280;12423;48.768;8.850;2023-08-30T04:46:24;96348.94;;;12.07;100.00
24306;BME280;12423;48.768;8.850;2023-08-30T04:48:52;96349.28;;;12.12;100.00
24306;BME280;12423;48.768;8.850;2023-08-30T04:51:21;96347.28;;;12.14;100.00
24306;BME280;12423;48.768;8.850;2023-08-30T04:53:49;96356.69;;;12.18;100.00
24306;BME280;12423;48.768;8.850;2023-08-30T04:56:17;96348.81;;;12.16;100.00
24306;BME280;12423;48.768;8.850;2023-08-30T04:58:45;96347.78;;;12.17;100.00
24306;BME280;12423;48.768;8.850;2023-08-30T05:01:13;96350.81;;;12.14;100.00
24306;BME280;12423;48.768;8.850;2023-08-30T05:03:44;96347.78;;;12.09;100.00
24306;BME280;12423;48.768;8.850;2023-08-30T05:06:14;96347.94;;;12.08;100.00
24306;BME280;12423;48.768;8.850;2023-08-30T05:08:44;96352.28;;;12.09;100.00
24306;BME280;12423;48.768;8.850;2023-08-30T05:11:12;96357.31;;;12.12;100.00
24306;BME280;12423;48.768;8.850;2023-08-30T05:13:40;96353.34;;;12.16;100.00
24306;BME280;12423;48.768;8.850;2023-08-30T05:16:08;96346.66;;;12.20;100.00
24306;BME280;12423;48.768;8.850;2023-08-30T05:18:36;96348.84;;;12.25;100.00
24306;BME280;12423;48.768;8.850;2023-08-30T05:21:04;96345.72;;;12.29;100.00
24306;BME280;12423;48.768;8.850;2023-08-30T05:23:31;96347.84;;;12.26;100.00
24306;BME280;12423;48.768;8.850;2023-08-30T05:26:01;96352.41;;;12.33;100.00
24306;BME280;12423;48.768;8.850;2023-08-30T05:28:29;96354.47;;;12.40;100.00
24306;BME280;12423;48.768;8.850;2023-08-30T05:30:57;96356.09;;;12.32;100.00
24306;BME280;12423;48.768;8.850;2023-08-30T05:33:36;96355.28;;;12.40;100.00
24306;BME280;12423;48.768;8.850;2023-08-30T05:36:42;96352.13;;;12.45;100.00
24306;BME280;12423;48.768;8.850;2023-08-30T05:39:35;96351.81;;;12.48;100.00
24306;BME280;12423;48.768;8.850;2023-08-30T05:42:05;96350.63;;;12.50;100.00
24306;BME280;12423;48.768;8.850;2023-08-30T05:44:32;96347.47;;;12.55;100.00
24306;BME280;12423;48.768;8.850;2023-08-30T05:47:00;96341.97;;;12.57;100.00
24306;BME280;12423;48.768;8.850;2023-08-30T05:49:28;96348.53;;;12.62;100.00
24306;BME280;12423;48.768;8.850;2023-08-30T05:51:56;96357.06;;;12.66;100.00
24306;BME280;12423;48.768;8.850;2023-08-30T05:54:24;96351.25;;;12.70;100.00
24306;BME280;12423;48.768;8.850;2023-08-30T05:56:53;96352.72;;;12.65;100.00
24306;BME280;12423;48.768;8.850;2023-08-30T05:59:22;96353.22;;;12.68;100.00
24306;BME280;12423;48.768;8.850;2023-08-30T06:01:50;96349.22;;;12.72;100.00
24306;BME280;12423;48.768;8.850;2023-08-30T06:04:18;96353.41;;;12.75;100.00
24306;BME280;12423;48.768;8.850;2023-08-30T06:06:46;96356.25;;;12.73;100.00
24306;BME280;12423;48.768;8.850;2023-08-30T06:09:14;96363.66;;;12.80;100.00
24306;BME280;12423;48.768;8.850;2023-08-30T06:11:41;96356.28;;;12.82;100.00
24306;BME280;12423;48.768;8.850;2023-08-30T06:14:09;96355.59;;;12.80;100.00
24306;BME280;12423;48.768;8.850;2023-08-30T06:16:38;96358.28;;;12.80;100.00
24306;BME280;12423;48.768;8.850;2023-08-30T06:19:10;96358.63;;;12.85;100.00
24306;BME280;12423;48.768;8.850;2023-08-30T06:21:38;96361.16;;;12.86;100.00
24306;BME280;12423;48.768;8.850;2023-08-30T06:24:06;96359.66;;;12.84;100.00
24306;BME280;12423;48.768;8.850;2023-08-30T06:26:33;96361.16;;;12.86;100.00
24306;BME280;12423;48.768;8.850;2023-08-30T06:29:01;96359.69;;;12.92;100.00
24306;BME280;12423;48.768;8.850;2023-08-30T06:31:31;96350.63;;;12.93;100.00
24306;BME280;12423;48.768;8.850;2023-08-30T06:34:01;96353.63;;;12.98;100.00
24306;BME280;12423;48.768;8.850;2023-08-30T06:36:28;96356.16;;;13.00;100.00
24306;BME280;12423;48.768;8.850;2023-08-30T06:38:56;96365.09;;;13.08;100.00
24306;BME280;12423;48.768;8.850;2023-08-30T06:41:24;96360.06;;;13.14;100.00
24306;BME280;12423;48.768;8.850;2023-08-30T06:43:51;96355.53;;;13.14;100.00
24306;BME280;12423;48.768;8.850;2023-08-30T06:46:20;96358.56;;;13.19;100.00
24306;BME280;12423;48.768;8.850;2023-08-30T06:48:47;96358.88;;;13.24;100.00
24306;BME280;12423;48.768;8.850;2023-08-30T06:51:16;96359.06;;;13.31;100.00
24306;BME280;12423;48.768;8.850;2023-08-30T06:53:44;96356.91;;;13.26;100.00
24306;BME280;12423;48.768;8.850;2023-08-30T06:56:13;96358.78;;;13.42;100.00
24306;BME280;12423;48.768;8.850;2023-08-30T06:58:41;96362.97;;;13.45;100.00
24306;BME280;12423;48.768;8.850;2023-08-30T07:01:09;96354.78;;;13.55;100.00
24306;BME280;12423;48.768;8.850;2023-08-30T07:03:37;96350.75;;;13.59;100.00
24306;BME280;12423;48.768;8.850;2023-08-30T07:06:06;96361.47;;;13.59;100.00
24306;BME280;12423;48.768;8.850;2023-08-30T07:08:35;96359.63;;;13.68;100.00
24306;BME280;12423;48.768;8.850;2023-08-30T07:11:03;96341.69;;;13.68;100.00
24306;BME280;12423;48.768;8.850;2023-08-30T07:13:35;96340.00;;;13.75;100.00
24306;BME280;12423;48.768;8.850;2023-08-30T07:16:03;96338.66;;;13.71;100.00
24306;BME280;12423;48.768;8.850;2023-08-30T07:18:31;96342.34;;;13.87;100.00
24306;BME280;12423;48.768;8.850;2023-08-30T07:20:58;96338.63;;;14.04;100.00
24306;BME280;12423;48.768;8.850;2023-08-30T07:23:26;96340.44;;;14.12;100.00
24306;BME280;12423;48.768;8.850;2023-08-30T07:25:55;96332.22;;;14.13;100.00
24306;BME280;12423;48.768;8.850;2023-08-30T07:28:23;96336.22;;;14.26;100.00
24306;BME280;12423;48.768;8.850;2023-08-30T07:30:50;96335.16;;;14.43;100.00
24306;BME280;12423;48.768;8.850;2023-08-30T07:33:18;96339.16;;;14.55;100.00
24306;BME280;12423;48.768;8.850;2023-08-30T07:35:46;96342.00;;;14.54;100.00
24306;BME280;12423;48.768;8.850;2023-08-30T07:38:13;96341.16;;;14.62;100.00
24306;BME280;12423;48.768;8.850;2023-08-30T07:40:41;96348.81;;;14.73;100.00
24306;BME280;12423;48.768;8.850;2023-08-30T07:43:10;96338.41;;;14.70;100.00
24306;BME280;12423;48.768;8.850;2023-08-30T07:45:38;96340.06;;;14.79;100.00
24306;BME280;12423;48.768;8.850;2023-08-30T07:48:06;96335.34;;;14.81;100.00
24306;BME280;12423;48.768;8.850;2023-08-30T07:50:33;96327.16;;;15.06;100.00
24306;BME280;12423;48.768;8.850;2023-08-30T07:53:02;96324.75;;;15.11;100.00
24306;BME280;12423;48.768;8.850;2023-08-30T07:55:29;96328.84;;;15.30;100.00
24306;BME280;12423;48.768;8.850;2023-08-30T07:57:57;96317.19;;;15.38;100.00
24306;BME280;12423;48.768;8.850;2023-08-30T08:00:26;96320.59;;;15.32;100.00
24306;BME280;12423;48.768;8.850;2023-08-30T08:02:53;96324.53;;;15.44;100.00
24306;BME280;12423;48.768;8.850;2023-08-30T08:05:21;96321.13;;;15.50;100.00
24306;BME280;12423;48.768;8.850;2023-08-30T08:07:51;96324.63;;;15.74;100.00
24306;BME280;12423;48.768;8.850;2023-08-30T08:10:19;96321.63;;;15.69;100.00
24306;BME280;12423;48.768;8.850;2023-08-30T08:12:48;96321.81;;;15.67;100.00
24306;BME280;12423;48.768;8.850;2023-08-30T08:15:16;96318.06;;;15.76;100.00
24306;BME280;12423;48.768;8.850;2023-08-30T08:17:45;96318.53;;;15.80;100.00
24306;BME280;12423;48.768;8.850;2023-08-30T08:20:13;96321.69;;;15.83;100.00
24306;BME280;12423;48.768;8.850;2023-08-30T08:22:41;96327.47;;;15.95;100.00
24306;BME280;12423;48.768;8.850;2023-08-30T08:25:09;96329.16;;;15.96;100.00
24306;BME280;12423;48.768;8.850;2023-08-30T08:27:37;96326.38;;;16.05;100.00
24306;BME280;12423;48.768;8.850;2023-08-30T08:30:06;96333.47;;;16.06;100.00
24306;BME280;12423;48.768;8.850;2023-08-30T08:32:33;96333.81;;;16.02;100.00
24306;BME280;12423;48.768;8.850;2023-08-30T08:35:03;96333.09;;;16.09;100.00
24306;BME280;12423;48.768;8.850;2023-08-30T08:37:31;96330.50;;;16.15;100.00
24306;BME280;12423;48.768;8.850;2023-08-30T08:39:58;96329.94;;;16.35;100.00
24306;BME280;12423;48.768;8.850;2023-08-30T08:42:26;96323.81;;;16.41;100.00
24306;BME280;12423;48.768;8.850;2023-08-30T08:44:56;96324.53;;;16.50;100.00
24306;BME280;12423;48.768;8.850;2023-08-30T08:47:25;96320.72;;;16.59;100.00
24306;BME280;12423;48.768;8.850;2023-08-30T08:49:54;96326.66;;;16.69;100.00
24306;BME280;12423;48.768;8.850;2023-08-30T08:52:23;96327.59;;;16.91;100.00
24306;BME280;12423;48.768;8.850;2023-08-30T08:55:01;96333.16;;;17.05;100.00
24306;BME280;12423;48.768;8.850;2023-08-30T08:57:29;96332.84;;;17.15;100.00
24306;BME280;12423;48.768;8.850;2023-08-30T08:59:58;96340.91;;;17.29;100.00
24306;BME280;12423;48.768;8.850;2023-08-30T09:02:27;96328.53;;;17.42;100.00
24306;BME280;12423;48.768;8.850;2023-08-30T09:04:56;96336.72;;;17.48;100.00
24306;BME280;12423;48.768;8.850;2023-08-30T09:07:27;96334.13;;;17.62;100.00
24306;BME280;12423;48.768;8.850;2023-08-30T09:09:55;96336.19;;;17.60;100.00
24306;BME280;12423;48.768;8.850;2023-08-30T09:12:22;96338.13;;;17.66;100.00
24306;BME280;12423;48.768;8.850;2023-08-30T09:14:54;96329.22;;;17.65;100.00
24306;BME280;12423;48.768;8.850;2023-08-30T09:17:23;96330.91;;;17.73;100.00
24306;BME280;12423;48.768;8.850;2023-08-30T09:19:50;96331.41;;;17.83;100.00
24306;BME280;12423;48.768;8.850;2023-08-30T09:22:18;96329.22;;;18.15;100.00
24306;BME280;12423;48.768;8.850;2023-08-30T09:24:47;96321.94;;;18.16;100.00
24306;BME280;12423;48.768;8.850;2023-08-30T09:27:15;96319.84;;;17.90;100.00
24306;BME280;12423;48.768;8.850;2023-08-30T09:29:44;96310.78;;;17.97;100.00
24306;BME280;12423;48.768;8.850;2023-08-30T09:32:12;96317.06;;;18.04;100.00
24306;BME280;12423;48.768;8.850;2023-08-30T09:34:45;96305.56;;;18.24;100.00
24306;BME280;12423;48.768;8.850;2023-08-30T09:37:20;96319.34;;;18.36;100.00
24306;BME280;12423;48.768;8.850;2023-08-30T09:39:50;96306.91;;;18.41;100.00
24306;BME280;12423;48.768;8.850;2023-08-30T09:42:18;96309.75;;;18.27;100.00
24306;BME280;12423;48.768;8.850;2023-08-30T09:44:46;96316.25;;;18.39;96.82
24306;BME280;12423;48.768;8.850;2023-08-30T09:47:14;96312.38;;;18.48;95.87
24306;BME280;12423;48.768;8.850;2023-08-30T09:49:43;96307.81;;;18.55;96.89
24306;BME280;12423;48.768;8.850;2023-08-30T09:52:14;96304.44;;;18.47;95.83
24306;BME280;12423;48.768;8.850;2023-08-30T09:54:42;96304.19;;;18.76;96.54
24306;BME280;12423;48.768;8.850;2023-08-30T09:57:13;96303.25;;;18.63;87.64
24306;BME280;12423;48.768;8.850;2023-08-30T09:59:42;96302.06;;;18.72;90.40
24306;BME280;12423;48.768;8.850;2023-08-30T10:02:10;96295.13;;;18.56;92.53
24306;BME280;12423;48.768;8.850;2023-08-30T10:04:38;96298.31;;;18.66;94.04
24306;BME280;12423;48.768;8.850;2023-08-30T10:07:07;96298.44;;;18.93;95.21
24306;BME280;12423;48.768;8.850;2023-08-30T10:09:38;96291.06;;;19.42;96.56
24306;BME280;12423;48.768;8.850;2023-08-30T10:12:20;96289.03;;;19.84;89.75
24306;BME280;12423;48.768;8.850;2023-08-30T10:14:48;96277.97;;;19.99;89.67
24306;BME280;12423;48.768;8.850;2023-08-30T10:17:18;96278.63;;;19.81;87.12
24306;BME280;12423;48.768;8.850;2023-08-30T10:19:46;96276.28;;;20.04;89.46
24306;BME280;12423;48.768;8.850;2023-08-30T10:22:16;96269.81;;;20.19;88.25
24306;BME280;12423;48.768;8.850;2023-08-30T10:24:46;96267.34;;;19.97;85.46
24306;BME280;12423;48.768;8.850;2023-08-30T10:27:39;96268.16;;;19.64;85.66
24306;BME280;12423;48.768;8.850;2023-08-30T10:30:09;96265.66;;;19.56;86.91
24306;BME280;12423;48.768;8.850;2023-08-30T10:32:39;96276.47;;;19.36;87.17
24306;BME280;12423;48.768;8.850;2023-08-30T10:35:10;96278.69;;;18.92;91.55
24306;BME280;12423;48.768;8.850;2023-08-30T10:37:38;96276.69;;;18.31;98.34
24306;BME280;12423;48.768;8.850;2023-08-30T10:40:07;96283.97;;;17.96;100.00
24306;BME280;12423;48.768;8.850;2023-08-30T10:42:37;96279.50;;;17.38;100.00
24306;BME280;12423;48.768;8.850;2023-08-30T10:45:06;96282.47;;;17.00;100.00
24306;BME280;12423;48.768;8.850;2023-08-30T10:47:37;96285.97;;;17.01;100.00
24306;BME280;12423;48.768;8.850;2023-08-30T10:50:07;96293.50;;;16.54;100.00
24306;BME280;12423;48.768;8.850;2023-08-30T10:52:35;96286.78;;;16.50;100.00
24306;BME280;12423;48.768;8.850;2023-08-30T10:55:07;96292.19;;;16.20;100.00
24306;BME280;12423;48.768;8.850;2023-08-30T10:57:37;96294.94;;;15.82;100.00
24306;BME280;12423;48.768;8.850;2023-08-30T11:00:10;96297.59;;;15.67;100.00
24306;BME280;12423;48.768;8.850;2023-08-30T11:02:44;96302.16;;;15.66;100.00
24306;BME280;12423;48.768;8.850;2023-08-30T11:05:12;96300.34;;;15.59;100.00
24306;BME280;12423;48.768;8.850;2023-08-30T11:07:40;96305.19;;;15.63;100.00
24306;BME280;12423;48.768;8.850;2023-08-30T11:10:08;96304.75;;;15.75;100.00
24306;BME280;12423;48.768;8.850;2023-08-30T11:12:40;96300.06;;;15.92;100.00
24306;BME280;12423;48.768;8.850;2023-08-30T11:15:10;96299.16;;;15.84;100.00
24306;BME280;12423;48.768;8.850;2023-08-30T11:17:38;96298.13;;;15.86;100.00
24306;BME280;12423;48.768;8.850;2023-08-30T11:20:07;96279.47;;;15.84;100.00
24306;BME280;12423;48.768;8.850;2023-08-30T11:22:36;96275.56;;;15.87;100.00
24306;BME280;12423;48.768;8.850;2023-08-30T11:25:04;96281.22;;;15.92;100.00
24306;BME280;12423;48.768;8.850;2023-08-30T11:27:32;96277.81;;;16.13;100.00
24306;BME280;12423;48.768;8.850;2023-08-30T11:30:02;96278.19;;;16.25;100.00
24306;BME280;12423;48.768;8.850;2023-08-30T11:32:32;96273.22;;;16.43;100.00
24306;BME280;12423;48.768;8.850;2023-08-30T11:35:01;96280.22;;;16.52;100.00
24306;BME280;12423;48.768;8.850;2023-08-30T11:37:29;96281.00;;;16.68;100.00
24306;BME280;12423;48.768;8.850;2023-08-30T11:39:58;96267.59;;;16.74;100.00
24306;BME280;12423;48.768;8.850;2023-08-30T11:42:26;96269.34;;;16.97;100.00
24306;BME280;12423;48.768;8.850;2023-08-30T11:44:54;96277.56;;;17.10;100.00
24306;BME280;12423;48.768;8.850;2023-08-30T11:47:24;96272.97;;;17.26;100.00
24306;BME280;12423;48.768;8.850;2023-08-30T11:49:53;96273.94;;;17.40;100.00
24306;BME280;12423;48.768;8.850;2023-08-30T11:52:23;96277.06;;;17.43;100.00
24306;BME280;12423;48.768;8.850;2023-08-30T11:54:51;96271.34;;;17.53;100.00
24306;BME280;12423;48.768;8.850;2023-08-30T11:57:19;96274.63;;;17.77;100.00
24306;BME280;12423;48.768;8.850;2023-08-30T11:59:47;96272.03;;;18.53;100.00
24306;BME280;12423;48.768;8.850;2023-08-30T12:02:17;96262.22;;;18.94;100.00
24306;BME280;12423;48.768;8.850;2023-08-30T12:04:46;96258.34;;;19.43;100.00
24306;BME280;12423;48.768;8.850;2023-08-30T12:07:21;96256.72;;;19.89;100.00
24306;BME280;12423;48.768;8.850;2023-08-30T12:09:50;96250.41;;;20.22;100.00
24306;BME280;12423;48.768;8.850;2023-08-30T12:12:18;96250.16;;;21.91;100.00
24306;BME280;12423;48.768;8.850;2023-08-30T12:14:54;96247.91;;;22.06;100.00
24306;BME280;12423;48.768;8.850;2023-08-30T12:17:22;96248.31;;;23.33;100.00
24306;BME280;12423;48.768;8.850;2023-08-30T12:19:56;96248.91;;;22.86;100.00
24306;BME280;12423;48.768;8.850;2023-08-30T12:22:35;96253.47;;;23.53;100.00
24306;BME280;12423;48.768;8.850;2023-08-30T12:25:03;96244.53;;;24.59;99.42
24306;BME280;12423;48.768;8.850;2023-08-30T12:27:31;96239.09;;;24.88;91.72
24306;BME280;12423;48.768;8.850;2023-08-30T12:29:58;96232.84;;;25.62;93.36
24306;BME280;12423;48.768;8.850;2023-08-30T12:32:26;96225.78;;;25.49;90.83
24306;BME280;12423;48.768;8.850;2023-08-30T12:34:55;96234.28;;;25.35;86.87
24306;BME280;12423;48.768;8.850;2023-08-30T12:37:23;96234.00;;;26.17;76.75
24306;BME280;12423;48.768;8.850;2023-08-30T12:39:51;96232.84;;;25.79;76.54
24306;BME280;12423;48.768;8.850;2023-08-30T12:42:19;96230.34;;;26.67;74.19
24306;BME280;12423;48.768;8.850;2023-08-30T12:44:47;96222.09;;;27.11;71.68
24306;BME280;12423;48.768;8.850;2023-08-30T12:47:14;96225.47;;;26.52;74.02
24306;BME280;12423;48.768;8.850;2023-08-30T12:49:42;96221.66;;;26.53;75.54
24306;BME280;12423;48.768;8.850;2023-08-30T12:52:11;96217.34;;;27.29;73.80
24306;BME280;12423;48.768;8.850;2023-08-30T12:54:39;96216.28;;;26.02;75.03
24306;BME280;12423;48.768;8.850;2023-08-30T12:57:06;96221.41;;;25.48;78.30
24306;BME280;12423;48.768;8.850;2023-08-30T12:59:34;96221.81;;;24.70;71.26